createdAt,value
2022-11-07T00:00:13.074Z,98.44
2022-11-07T00:05:33.956Z,98.26
2022-11-07T00:10:36.769Z,98.33
2022-11-07T00:15:39.550Z,98.78
2022-11-07T00:20:42.374Z,98.51
2022-11-07T00:25:45.195Z,98.51
2022-11-07T00:30:47.980Z,98.30
2022-11-07T00:35:50.771Z,98.12
2022-11-07T00:40:58.435Z,98.30
2022-11-07T00:46:06.298Z,98.07
2022-11-07T00:51:15.939Z,98.21
2022-11-07T00:56:21.922Z,98.42
2022-11-07T01:01:31.183Z,98.73
2022-11-07T01:06:38.139Z,98.65
2022-11-07T01:11:42.174Z,98.73
2022-11-07T01:16:46.034Z,98.69
2022-11-07T01:21:49.536Z,99.16
2022-11-07T01:26:52.411Z,99.57
2022-11-07T01:31:55.164Z,99.85
2022-11-07T01:36:59.351Z,99.99
2022-11-07T01:42:02.141Z,99.89
2022-11-07T01:47:05.119Z,99.43
2022-11-07T01:52:24.622Z,99.14
2022-11-07T01:57:32.782Z,99.44
2022-11-07T02:02:36.886Z,99.73
2022-11-07T02:07:41.230Z,99.67
2022-11-07T02:12:44.460Z,99.58
2022-11-07T02:17:47.400Z,99.45
2022-11-07T02:23:05.160Z,99.56
2022-11-07T02:28:10.384Z,99.55
2022-11-07T02:33:19.096Z,99.18
2022-11-07T02:38:31.509Z,99.15
2022-11-07T02:43:37.101Z,99.10
2022-11-07T02:48:49.805Z,99.14
2022-11-07T02:53:53.820Z,99.28
2022-11-07T02:58:56.843Z,99.58
2022-11-07T03:03:59.679Z,99.66
2022-11-07T03:09:02.445Z,99.83
2022-11-07T03:14:05.207Z,99.93
2022-11-07T03:19:09.474Z,99.96
2022-11-07T03:24:12.346Z,99.98
2022-11-07T03:29:15.316Z,99.48
2022-11-07T03:34:18.193Z,99.34
2022-11-07T03:39:25.607Z,99.45
2022-11-07T03:44:28.787Z,99.89
2022-11-07T03:49:31.572Z,99.76
2022-11-07T03:54:34.403Z,99.83
2022-11-07T03:59:37.160Z,99.99
2022-11-07T04:04:41.095Z,100.00
2022-11-07T04:09:43.950Z,99.98
2022-11-07T04:15:05.513Z,99.94
2022-11-07T04:20:10.237Z,99.98
2022-11-07T04:25:13.110Z,100.00
2022-11-07T04:30:23.930Z,100.00
2022-11-07T04:35:30.420Z,100.00
2022-11-07T04:40:33.267Z,100.00
2022-11-07T04:45:37.344Z,100.00
2022-11-07T04:50:40.558Z,100.00
2022-11-07T04:55:43.787Z,100.00
2022-11-07T05:00:46.570Z,100.00
2022-11-07T05:05:49.324Z,100.00
2022-11-07T05:10:52.083Z,100.00
2022-11-07T05:15:54.889Z,100.00
2022-11-07T05:20:57.729Z,100.00
2022-11-07T05:26:00.731Z,100.00
2022-11-07T05:31:05.140Z,100.00
2022-11-07T05:36:16.099Z,100.00
2022-11-07T05:41:20.983Z,99.96
2022-11-07T05:46:23.813Z,99.91
2022-11-07T05:51:26.591Z,99.90
2022-11-07T05:56:29.394Z,99.81
2022-11-07T06:01:32.388Z,100.00
2022-11-07T06:06:35.277Z,100.00
2022-11-07T06:11:38.086Z,100.00
2022-11-07T06:16:41.187Z,100.00
2022-11-07T06:21:43.949Z,99.74
2022-11-07T06:26:46.733Z,99.63
2022-11-07T06:31:49.600Z,99.32
2022-11-07T06:37:02.517Z,98.96
2022-11-07T06:42:05.987Z,98.92
2022-11-07T06:47:09.059Z,98.40
2022-11-07T06:52:12.968Z,98.02
2022-11-07T06:57:16.135Z,97.99
2022-11-07T07:02:43.835Z,97.12
2022-11-07T07:07:42.429Z,96.51
2022-11-07T07:12:45.488Z,96.46
2022-11-07T07:17:49.404Z,95.94
2022-11-07T07:22:58.897Z,95.08
2022-11-07T07:28:04.379Z,94.33
2022-11-07T07:33:07.157Z,93.27
2022-11-07T07:38:12.158Z,92.46
2022-11-07T07:43:15.466Z,92.37
2022-11-07T07:48:20.148Z,91.86
2022-11-07T07:53:23.643Z,91.45
2022-11-07T07:58:30.830Z,91.42
2022-11-07T08:03:59.581Z,91.23
2022-11-07T08:09:04.715Z,90.89
2022-11-07T08:14:08.542Z,90.63
2022-11-07T08:19:15.033Z,89.55
2022-11-07T08:24:21.102Z,88.45
2022-11-07T08:29:24.453Z,88.05
2022-11-07T08:34:27.332Z,87.35
2022-11-07T08:39:30.308Z,87.05
2022-11-07T08:44:36.918Z,86.99
2022-11-07T08:49:40.583Z,87.20
2022-11-07T08:54:43.540Z,87.33
2022-11-07T08:59:47.195Z,87.04
2022-11-07T09:04:52.329Z,87.36
2022-11-07T09:09:55.515Z,87.76
2022-11-07T09:14:59.643Z,88.24
2022-11-07T09:20:05.389Z,87.62
2022-11-07T09:25:09.236Z,87.40
2022-11-07T09:30:12.528Z,87.01
2022-11-07T09:35:15.486Z,87.37
2022-11-07T09:40:33.214Z,86.65
2022-11-07T09:46:04.676Z,86.00
2022-11-07T09:51:14.848Z,86.34
2022-11-07T09:56:18.334Z,86.34
2022-11-07T10:01:22.385Z,86.40
2022-11-07T10:06:28.889Z,86.55
2022-11-07T10:11:34.568Z,86.79
2022-11-07T10:17:15.346Z,86.97
2022-11-07T10:22:33.693Z,86.45
2022-11-07T10:27:38.673Z,86.38
2022-11-07T10:33:18.614Z,85.49
2022-11-07T10:38:31.544Z,85.40
2022-11-07T10:43:44.835Z,85.15
2022-11-07T10:48:58.592Z,85.42
2022-11-07T10:54:01.690Z,84.96
2022-11-07T10:59:13.042Z,84.99
2022-11-07T11:04:23.807Z,84.65
2022-11-07T11:09:36.378Z,84.01
2022-11-07T11:14:40.104Z,84.12
2022-11-07T11:19:53.936Z,83.54
2022-11-07T11:25:20.547Z,83.45
2022-11-07T11:30:24.272Z,82.30
2022-11-07T11:35:45.866Z,82.01
2022-11-07T11:41:01.519Z,81.54
2022-11-07T11:46:30.302Z,81.86
2022-11-07T11:51:43.926Z,82.43
2022-11-07T11:57:02.033Z,83.29
2022-11-07T12:02:36.737Z,83.49
2022-11-07T12:07:57.322Z,83.24
2022-11-07T12:13:33.797Z,83.16
2022-11-07T12:19:14.854Z,82.44
2022-11-07T12:24:36.590Z,82.75
2022-11-07T12:30:06.780Z,82.19
2022-11-07T12:35:38.764Z,82.40
2022-11-07T12:41:23.816Z,82.45
2022-11-07T12:46:46.242Z,82.90
2022-11-07T12:51:52.178Z,82.89
2022-11-07T12:56:57.899Z,82.92
2022-11-07T13:02:16.681Z,83.20
2022-11-07T13:07:30.986Z,83.51
2022-11-07T13:13:01.289Z,83.93
2022-11-07T13:18:20.011Z,84.33
2022-11-07T13:23:28.358Z,84.11
2022-11-07T13:28:58.151Z,84.25
2022-11-07T13:34:19.080Z,84.21
2022-11-07T13:39:24.983Z,84.34
2022-11-07T13:44:33.851Z,83.70
2022-11-07T13:49:45.290Z,83.42
2022-11-07T13:55:03.872Z,83.85
2022-11-07T14:00:19.714Z,83.93
2022-11-07T14:05:29.522Z,83.84
2022-11-07T14:10:42.130Z,84.19
2022-11-07T14:15:53.555Z,84.45
2022-11-07T14:20:58.245Z,84.80
2022-11-07T14:26:02.830Z,84.63
2022-11-07T14:31:20.565Z,84.80
2022-11-07T14:36:24.563Z,84.80
2022-11-07T14:41:27.793Z,85.09
2022-11-07T14:46:30.812Z,85.32
2022-11-07T14:51:33.807Z,85.64
2022-11-07T14:56:41.655Z,85.67
2022-11-07T15:02:08.067Z,85.93
2022-11-07T15:07:10.996Z,85.86
2022-11-07T15:12:18.496Z,86.16
2022-11-07T15:17:25.342Z,86.48
2022-11-07T15:22:30.387Z,86.52
2022-11-07T15:27:40.385Z,86.71
2022-11-07T15:32:43.343Z,86.80
2022-11-07T15:37:54.443Z,86.95
2022-11-07T15:42:57.573Z,86.93
2022-11-07T15:48:00.591Z,87.14
2022-11-07T15:53:03.440Z,87.21
2022-11-07T15:58:06.338Z,87.33
2022-11-07T16:03:18.129Z,87.56
2022-11-07T16:08:31.895Z,87.65
2022-11-07T16:13:41.457Z,87.96
2022-11-07T16:18:46.015Z,88.19
2022-11-07T16:23:49.894Z,88.24
2022-11-07T16:28:52.975Z,88.50
2022-11-07T16:33:55.832Z,88.57
2022-11-07T16:39:03.016Z,88.71
2022-11-07T16:44:08.043Z,89.12
2022-11-07T16:49:24.534Z,89.20
2022-11-07T16:54:27.956Z,89.20
2022-11-07T16:59:31.387Z,89.18
2022-11-07T17:04:34.235Z,89.19
2022-11-07T17:09:37.043Z,89.49
2022-11-07T17:14:39.898Z,89.62
2022-11-07T17:19:43.032Z,89.98
2022-11-07T17:24:45.984Z,90.22
2022-11-07T17:29:51.208Z,90.32
2022-11-07T17:35:18.127Z,90.84
2022-11-07T17:40:25.366Z,91.08
2022-11-07T17:45:28.637Z,91.17
2022-11-07T17:50:32.136Z,91.54
2022-11-07T17:55:35.315Z,91.43
2022-11-07T18:00:38.232Z,91.72
2022-11-07T18:05:42.772Z,92.01
2022-11-07T18:10:45.595Z,91.86
2022-11-07T18:15:48.461Z,92.18
2022-11-07T18:20:51.308Z,92.50
2022-11-07T18:26:20.750Z,92.53
2022-11-07T18:31:26.698Z,92.56
2022-11-07T18:36:31.913Z,92.79
2022-11-07T18:41:35.163Z,92.79
2022-11-07T18:46:38.650Z,92.55
2022-11-07T18:51:44.516Z,92.78
2022-11-07T18:56:47.748Z,92.82
2022-11-07T19:01:50.975Z,93.08
2022-11-07T19:06:57.516Z,92.79
2022-11-07T19:12:00.832Z,92.62
2022-11-07T19:17:05.656Z,92.88
2022-11-07T19:22:12.524Z,92.71
2022-11-07T19:27:15.566Z,92.45
2022-11-07T19:32:18.829Z,92.83
2022-11-07T19:37:21.716Z,93.19
2022-11-07T19:42:28.231Z,93.20
2022-11-07T19:47:31.377Z,93.25
2022-11-07T19:52:34.582Z,93.25
2022-11-07T19:57:38.225Z,93.19
2022-11-07T20:02:44.735Z,93.00
2022-11-07T20:07:53.086Z,92.79
2022-11-07T20:12:58.969Z,93.18
2022-11-07T20:18:04.062Z,93.04
2022-11-07T20:23:06.961Z,93.23
2022-11-07T20:28:09.847Z,93.40
2022-11-07T20:33:16.003Z,93.08
2022-11-07T20:38:19.187Z,92.84
2022-11-07T20:43:24.596Z,93.30
2022-11-07T20:48:28.612Z,93.12
2022-11-07T20:53:31.884Z,93.26
2022-11-07T20:58:40.558Z,93.31
2022-11-07T21:03:43.469Z,93.16
2022-11-07T21:08:48.571Z,93.26
2022-11-07T21:13:53.389Z,93.25
2022-11-07T21:18:56.883Z,92.99
2022-11-07T21:23:59.940Z,93.23
2022-11-07T21:29:06.591Z,93.49
2022-11-07T21:34:12.313Z,93.48
2022-11-07T21:39:16.355Z,93.66
2022-11-07T21:44:19.219Z,93.57
2022-11-07T21:49:22.052Z,93.58
2022-11-07T21:54:25.511Z,93.60
2022-11-07T21:59:30.783Z,93.55
2022-11-07T22:04:33.654Z,93.50
2022-11-07T22:09:36.685Z,93.62
2022-11-07T22:14:39.895Z,93.61
2022-11-07T22:19:42.729Z,93.50
2022-11-07T22:24:45.640Z,93.55
2022-11-07T22:29:48.733Z,93.69
2022-11-07T22:34:51.737Z,93.40
2022-11-07T22:39:54.551Z,93.12
2022-11-07T22:44:57.471Z,93.31
2022-11-07T22:50:00.811Z,93.88
2022-11-07T22:55:06.360Z,94.00
2022-11-07T23:00:20.867Z,94.17
2022-11-07T23:05:25.864Z,94.42
2022-11-07T23:10:28.892Z,94.61
2022-11-07T23:15:32.347Z,95.01
2022-11-07T23:21:09.557Z,95.20
2022-11-07T23:26:17.910Z,95.27
2022-11-07T23:31:21.072Z,95.06
2022-11-07T23:36:23.866Z,95.17
2022-11-07T23:41:26.689Z,95.09
2022-11-07T23:46:48.616Z,95.12
2022-11-07T23:51:51.399Z,94.83
2022-11-07T23:56:54.488Z,94.97
